createdAt,value
2023-05-23T00:02:08.664Z,16.58
2023-05-23T00:04:36.846Z,16.59
2023-05-23T00:07:04.868Z,16.59
2023-05-23T00:09:32.025Z,16.60
2023-05-23T00:11:59.320Z,16.60
2023-05-23T00:14:26.957Z,16.61
2023-05-23T00:16:55.166Z,16.56
2023-05-23T00:19:22.471Z,16.53
2023-05-23T00:21:49.775Z,16.54
2023-05-23T00:24:20.510Z,16.56
2023-05-23T00:26:47.958Z,16.57
2023-05-23T00:29:16.881Z,16.62
2023-05-23T00:31:47.131Z,16.64
2023-05-23T00:34:17.961Z,16.65
2023-05-23T00:36:47.886Z,16.65
2023-05-23T00:39:19.935Z,16.62
2023-05-23T00:41:52.405Z,16.58
2023-05-23T00:44:21.358Z,16.56
2023-05-23T00:46:55.474Z,16.55
2023-05-23T00:49:23.373Z,16.53
2023-05-23T00:51:52.223Z,16.53
2023-05-23T00:54:28.678Z,16.51
2023-05-23T00:56:56.188Z,16.48
2023-05-23T00:59:26.972Z,16.50
2023-05-23T01:01:58.135Z,16.50
2023-05-23T01:04:27.216Z,16.50
2023-05-23T01:06:57.791Z,16.54
2023-05-23T01:09:27.364Z,16.53
2023-05-23T01:12:25.519Z,16.54
2023-05-23T01:15:09.980Z,16.50
2023-05-23T01:17:55.295Z,16.55
2023-05-23T01:20:28.727Z,16.54
2023-05-23T01:23:01.309Z,16.54
2023-05-23T01:25:50.250Z,16.51
2023-05-23T01:28:21.537Z,16.48
2023-05-23T01:30:52.131Z,16.46
2023-05-23T01:33:22.720Z,16.47
2023-05-23T01:35:50.870Z,16.38
2023-05-23T01:38:18.294Z,16.37
2023-05-23T01:40:45.487Z,16.35
2023-05-23T01:43:12.572Z,16.34
2023-05-23T01:45:40.463Z,16.31
2023-05-23T01:48:09.799Z,16.28
2023-05-23T01:50:37.430Z,16.24
2023-05-23T01:53:05.652Z,16.23
2023-05-23T01:55:33.177Z,16.24
2023-05-23T01:58:00.737Z,16.26
2023-05-23T02:00:28.366Z,16.23
2023-05-23T02:02:55.653Z,16.21
2023-05-23T02:05:22.764Z,16.21
2023-05-23T02:07:50.033Z,16.17
2023-05-23T02:10:17.364Z,16.14
2023-05-23T02:12:45.921Z,16.13
2023-05-23T02:15:13.058Z,16.16
2023-05-23T02:17:41.460Z,16.15
2023-05-23T02:20:10.224Z,16.13
2023-05-23T02:22:38.779Z,16.07
2023-05-23T02:25:06.912Z,16.03
2023-05-23T02:27:33.977Z,16.03
2023-05-23T02:30:01.157Z,16.02
2023-05-23T02:32:28.377Z,15.97
2023-05-23T02:34:57.296Z,15.91
2023-05-23T02:37:24.755Z,15.92
2023-05-23T02:39:51.779Z,15.91
2023-05-23T02:42:18.852Z,15.86
2023-05-23T02:44:45.931Z,15.85
2023-05-23T02:47:13.038Z,15.87
2023-05-23T02:49:40.101Z,15.90
2023-05-23T02:52:07.183Z,15.89
2023-05-23T02:54:34.266Z,15.91
2023-05-23T02:57:01.464Z,15.92
2023-05-23T02:59:28.935Z,15.92
2023-05-23T03:01:56.321Z,15.89
2023-05-23T03:04:23.963Z,15.90
2023-05-23T03:06:54.372Z,15.90
2023-05-23T03:09:21.801Z,15.91
2023-05-23T03:11:48.894Z,15.91
2023-05-23T03:14:16.472Z,15.91
2023-05-23T03:16:43.772Z,15.90
2023-05-23T03:19:11.206Z,15.89
2023-05-23T03:21:38.914Z,15.86
2023-05-23T03:24:06.419Z,15.84
2023-05-23T03:26:33.561Z,15.84
2023-05-23T03:29:00.872Z,15.83
2023-05-23T03:31:27.907Z,15.83
2023-05-23T03:33:55.104Z,15.82
2023-05-23T03:36:25.973Z,15.82
2023-05-23T03:38:53.523Z,15.84
2023-05-23T03:41:21.482Z,15.85
2023-05-23T03:43:48.652Z,15.85
2023-05-23T03:46:16.122Z,15.83
2023-05-23T03:48:43.307Z,15.84
2023-05-23T03:51:10.354Z,15.85
2023-05-23T03:53:37.324Z,15.84
2023-05-23T03:56:04.474Z,15.88
2023-05-23T03:58:31.458Z,15.93
2023-05-23T04:03:28.502Z,15.97
2023-05-23T04:05:57.836Z,15.93
2023-05-23T04:08:25.198Z,15.93
2023-05-23T04:10:52.208Z,15.93
2023-05-23T04:13:19.234Z,15.96
2023-05-23T04:15:48.077Z,15.97
2023-05-23T04:18:15.263Z,15.96
2023-05-23T04:20:42.557Z,15.95
2023-05-23T04:23:09.599Z,15.95
2023-05-23T04:25:36.780Z,15.95
2023-05-23T04:28:05.344Z,15.93
2023-05-23T04:30:33.451Z,15.95
2023-05-23T04:33:00.493Z,15.96
2023-05-23T04:35:28.456Z,16.01
2023-05-23T04:37:58.555Z,16.01
2023-05-23T04:40:25.804Z,16.02
2023-05-23T04:42:52.852Z,16.02
2023-05-23T04:45:20.004Z,16.03
2023-05-23T04:47:47.914Z,16.03
2023-05-23T04:50:15.589Z,16.05
2023-05-23T04:52:42.687Z,16.09
2023-05-23T04:55:10.049Z,16.10
2023-05-23T04:57:37.485Z,16.08
2023-05-23T05:00:10.656Z,16.07
2023-05-23T05:02:39.656Z,16.11
2023-05-23T05:05:07.440Z,16.11
2023-05-23T05:07:35.775Z,16.08
2023-05-23T05:10:03.963Z,16.05
2023-05-23T05:12:31.254Z,16.02
2023-05-23T05:14:58.363Z,16.00
2023-05-23T05:17:25.915Z,16.01
2023-05-23T05:19:53.097Z,16.02
2023-05-23T05:22:20.109Z,16.07
2023-05-23T05:24:47.307Z,16.15
2023-05-23T05:27:14.503Z,16.17
2023-05-23T05:29:42.533Z,16.21
2023-05-23T05:32:09.812Z,16.20
2023-05-23T05:34:37.924Z,16.22
2023-05-23T05:37:05.334Z,16.28
2023-05-23T05:39:32.425Z,16.30
2023-05-23T05:42:01.317Z,16.23
2023-05-23T05:44:28.471Z,16.20
2023-05-23T05:46:55.774Z,16.15
2023-05-23T05:52:26.055Z,16.07
2023-05-23T05:54:53.229Z,16.03
2023-05-23T05:57:20.293Z,16.03
2023-05-23T05:59:47.310Z,15.98
2023-05-23T06:02:14.566Z,15.89
2023-05-23T06:04:41.708Z,15.84
2023-05-23T06:07:08.737Z,15.80
2023-05-23T06:09:36.185Z,15.73
2023-05-23T06:12:03.343Z,15.73
2023-05-23T06:14:30.478Z,15.74
2023-05-23T06:16:57.986Z,15.72
2023-05-23T06:19:25.242Z,15.72
2023-05-23T06:21:53.145Z,15.75
2023-05-23T06:24:20.424Z,15.72
2023-05-23T06:26:50.061Z,15.70
2023-05-23T06:29:17.312Z,15.66
2023-05-23T06:31:44.481Z,15.64
2023-05-23T06:34:11.550Z,15.59
2023-05-23T06:36:38.583Z,15.51
2023-05-23T06:39:05.551Z,15.45
2023-05-23T06:41:32.570Z,15.40
2023-05-23T06:43:59.640Z,15.39
2023-05-23T06:46:26.885Z,15.44
2023-05-23T06:49:06.457Z,15.53
2023-05-23T06:51:33.999Z,15.57
2023-05-23T06:54:01.166Z,15.61
2023-05-23T06:56:28.215Z,15.63
2023-05-23T06:58:55.463Z,15.61
2023-05-23T07:01:22.630Z,15.60
2023-05-23T07:03:49.988Z,15.64
2023-05-23T07:06:17.728Z,15.68
2023-05-23T07:11:13.912Z,15.82
2023-05-23T07:13:41.013Z,15.82
2023-05-23T07:16:08.167Z,15.78
2023-05-23T07:18:38.351Z,15.79
2023-05-23T07:21:06.103Z,15.74
2023-05-23T07:23:36.935Z,15.66
2023-05-23T07:26:04.943Z,15.68
2023-05-23T07:28:33.127Z,15.70
2023-05-23T07:31:00.880Z,15.80
2023-05-23T07:33:28.546Z,15.97
2023-05-23T07:35:55.694Z,16.14
2023-05-23T07:38:22.807Z,16.34
2023-05-23T07:40:58.820Z,16.55
2023-05-23T07:43:30.089Z,16.79
2023-05-23T07:45:57.097Z,16.91
2023-05-23T07:48:24.431Z,16.99
2023-05-23T07:50:55.128Z,17.11
2023-05-23T07:53:25.076Z,17.24
2023-05-23T07:55:52.102Z,17.49
2023-05-23T07:58:19.187Z,17.76
2023-05-23T08:00:46.355Z,18.07
2023-05-23T08:03:13.656Z,18.18
2023-05-23T08:05:40.779Z,18.44
2023-05-23T08:08:07.922Z,18.73
2023-05-23T08:10:35.030Z,18.88
2023-05-23T08:13:06.844Z,18.97
2023-05-23T08:15:34.068Z,19.04
2023-05-23T08:18:01.364Z,19.03
2023-05-23T08:20:32.258Z,18.93
2023-05-23T08:23:03.391Z,18.92
2023-05-23T08:25:30.968Z,18.98
2023-05-23T08:27:59.187Z,18.96
2023-05-23T08:30:28.176Z,18.91
2023-05-23T08:32:56.509Z,19.07
2023-05-23T08:35:24.447Z,19.08
2023-05-23T08:37:52.563Z,19.05
2023-05-23T08:40:22.784Z,19.09
2023-05-23T08:42:51.401Z,19.07
2023-05-23T08:45:19.235Z,19.09
2023-05-23T08:47:47.708Z,19.10
2023-05-23T08:50:18.693Z,19.02
2023-05-23T08:52:50.327Z,18.98
2023-05-23T08:55:18.718Z,18.96
2023-05-23T08:57:46.736Z,18.89
2023-05-23T09:00:15.564Z,18.80
2023-05-23T09:02:46.817Z,18.86
2023-05-23T09:05:14.697Z,18.74
2023-05-23T09:07:45.313Z,18.90
2023-05-23T09:10:13.107Z,18.99
2023-05-23T09:12:40.241Z,18.97
2023-05-23T09:15:09.945Z,19.04
2023-05-23T09:17:40.687Z,19.20
2023-05-23T09:20:17.281Z,19.31
2023-05-23T09:22:48.987Z,19.28
2023-05-23T09:25:16.575Z,19.22
2023-05-23T09:27:47.568Z,19.32
2023-05-23T09:30:16.008Z,19.49
2023-05-23T09:32:44.788Z,19.77
2023-05-23T09:35:14.039Z,20.09
2023-05-23T09:37:48.255Z,20.11
2023-05-23T09:40:16.532Z,19.87
2023-05-23T09:42:48.538Z,19.57
2023-05-23T09:45:17.190Z,19.35
2023-05-23T09:47:54.245Z,19.38
2023-05-23T09:50:22.630Z,19.79
2023-05-23T09:52:51.405Z,20.34
2023-05-23T09:55:18.728Z,20.70
2023-05-23T09:57:51.609Z,21.09
2023-05-23T10:00:20.453Z,21.25
2023-05-23T10:03:13.160Z,20.94
2023-05-23T10:05:43.108Z,20.66
2023-05-23T10:08:39.075Z,20.68
2023-05-23T10:11:15.208Z,20.78
2023-05-23T10:13:45.293Z,20.86
2023-05-23T10:16:25.624Z,20.83
2023-05-23T10:19:03.668Z,20.79
2023-05-23T10:21:48.417Z,20.93
2023-05-23T10:24:17.632Z,21.26
2023-05-23T10:26:45.957Z,21.48
2023-05-23T10:29:13.077Z,21.57
2023-05-23T10:31:41.069Z,21.39
2023-05-23T10:34:27.103Z,21.08
2023-05-23T10:37:11.262Z,21.05
2023-05-23T10:39:44.527Z,21.13
2023-05-23T10:42:43.636Z,21.58
2023-05-23T10:45:22.592Z,21.89
2023-05-23T10:47:53.375Z,21.84
2023-05-23T10:50:37.259Z,21.76
2023-05-23T10:53:06.464Z,21.62
2023-05-23T10:55:36.799Z,21.41
2023-05-23T10:58:15.656Z,21.02
2023-05-23T11:01:06.077Z,21.07
2023-05-23T11:03:52.030Z,21.46
2023-05-23T11:06:43.187Z,21.85
2023-05-23T11:09:12.968Z,21.76
2023-05-23T11:11:52.374Z,21.63
2023-05-23T11:14:46.209Z,21.57
2023-05-23T11:17:13.314Z,21.61
2023-05-23T11:19:56.114Z,21.74
2023-05-23T11:22:30.219Z,21.94
2023-05-23T11:24:59.631Z,22.05
2023-05-23T11:27:34.892Z,22.50
2023-05-23T11:30:13.585Z,23.06
2023-05-23T11:32:43.078Z,23.21
2023-05-23T11:35:11.419Z,23.13
2023-05-23T11:37:39.977Z,22.67
2023-05-23T11:40:27.023Z,22.12
2023-05-23T11:42:55.756Z,22.08
2023-05-23T11:45:24.098Z,22.14
2023-05-23T11:47:51.399Z,22.28
2023-05-23T11:50:20.551Z,22.33
2023-05-23T11:52:51.882Z,22.47
2023-05-23T11:55:23.213Z,22.37
2023-05-23T11:57:51.697Z,22.41
2023-05-23T12:00:19.935Z,22.58
2023-05-23T12:02:50.678Z,22.60
2023-05-23T12:05:18.349Z,22.60
2023-05-23T12:07:49.694Z,22.88
2023-05-23T12:10:17.962Z,23.11
2023-05-23T12:12:45.470Z,23.02
2023-05-23T12:15:13.704Z,22.82
2023-05-23T12:17:47.340Z,22.71
2023-05-23T12:20:14.963Z,23.11
2023-05-23T12:22:42.981Z,22.99
2023-05-23T12:25:13.247Z,22.57
2023-05-23T12:27:44.280Z,22.28
2023-05-23T12:30:16.852Z,22.14
2023-05-23T12:32:46.777Z,22.03
2023-05-23T12:35:16.186Z,21.98
2023-05-23T12:37:46.981Z,22.02
2023-05-23T12:40:16.403Z,22.28
2023-05-23T12:42:52.962Z,22.54
2023-05-23T12:45:36.608Z,22.65
2023-05-23T12:48:05.031Z,22.61
2023-05-23T12:50:32.531Z,22.86
2023-05-23T12:53:00.278Z,23.25
2023-05-23T12:55:27.653Z,23.30
2023-05-23T12:57:57.369Z,22.97
2023-05-23T13:00:24.867Z,22.64
2023-05-23T13:02:52.738Z,22.46
2023-05-23T13:05:21.037Z,22.52
2023-05-23T13:07:48.622Z,22.57
2023-05-23T13:10:16.216Z,22.65
2023-05-23T13:12:43.656Z,22.70
2023-05-23T13:15:11.734Z,22.73
2023-05-23T13:17:39.053Z,22.83
2023-05-23T13:20:07.767Z,22.91
2023-05-23T13:22:35.575Z,22.75
2023-05-23T13:25:02.859Z,22.75
2023-05-23T13:27:30.329Z,22.83
2023-05-23T13:29:57.663Z,22.97
2023-05-23T13:32:24.891Z,23.22
2023-05-23T13:34:53.110Z,23.40
2023-05-23T13:37:20.567Z,23.56
2023-05-23T13:39:49.882Z,23.61
2023-05-23T13:42:18.529Z,23.47
2023-05-23T13:44:45.775Z,23.41
2023-05-23T13:47:14.812Z,23.44
2023-05-23T13:49:43.326Z,23.62
2023-05-23T13:52:11.601Z,23.91
2023-05-23T13:54:38.913Z,24.15
2023-05-23T13:57:06.846Z,23.80
2023-05-23T13:59:34.344Z,23.42
2023-05-23T14:02:01.883Z,23.42
2023-05-23T14:04:29.146Z,23.47
2023-05-23T14:06:56.298Z,23.19
2023-05-23T14:09:24.430Z,23.01
2023-05-23T14:11:52.571Z,22.78
2023-05-23T14:14:20.163Z,22.62
2023-05-23T14:16:47.545Z,22.84
2023-05-23T14:19:15.216Z,23.08
2023-05-23T14:21:44.802Z,23.25
2023-05-23T14:24:12.546Z,23.39
2023-05-23T14:26:40.154Z,23.22
2023-05-23T14:29:08.873Z,23.02
2023-05-23T14:31:36.470Z,23.08
2023-05-23T14:34:04.066Z,23.02
2023-05-23T14:36:31.768Z,22.81
2023-05-23T14:39:01.463Z,22.63
2023-05-23T14:41:29.018Z,22.80
2023-05-23T14:43:56.473Z,22.81
2023-05-23T14:46:23.967Z,23.24
2023-05-23T14:48:51.250Z,23.68
2023-05-23T14:51:35.073Z,24.18
2023-05-23T14:54:11.127Z,24.31
2023-05-23T14:56:38.474Z,24.12
2023-05-23T14:59:06.276Z,24.08
2023-05-23T15:01:33.878Z,24.22
2023-05-23T15:04:01.547Z,24.37
2023-05-23T15:06:28.770Z,24.44
2023-05-23T15:08:56.766Z,24.35
2023-05-23T15:11:26.643Z,24.54
2023-05-23T15:13:54.734Z,24.76
2023-05-23T15:16:23.694Z,25.19
2023-05-23T15:18:51.738Z,25.58
2023-05-23T15:21:21.545Z,25.96
2023-05-23T15:23:49.004Z,26.17
2023-05-23T15:26:16.350Z,26.19
2023-05-23T15:28:43.903Z,26.32
2023-05-23T15:31:12.544Z,26.46
2023-05-23T15:33:40.044Z,26.37
2023-05-23T15:36:08.146Z,25.77
2023-05-23T15:38:35.311Z,25.29
2023-05-23T15:41:03.292Z,24.61
2023-05-23T15:43:31.238Z,24.44
2023-05-23T15:45:58.863Z,24.54
2023-05-23T15:48:25.985Z,24.58
2023-05-23T15:50:55.122Z,24.11
2023-05-23T15:53:22.352Z,24.26
2023-05-23T15:55:49.543Z,24.83
2023-05-23T15:58:17.279Z,25.40
2023-05-23T16:00:44.535Z,25.92
2023-05-23T16:03:11.925Z,26.39
2023-05-23T16:05:39.755Z,26.74
2023-05-23T16:08:07.694Z,26.96
2023-05-23T16:10:34.973Z,27.03
2023-05-23T16:13:03.048Z,27.07
2023-05-23T16:15:30.458Z,27.19
2023-05-23T16:17:57.669Z,27.37
2023-05-23T16:20:25.008Z,27.44
2023-05-23T16:22:53.105Z,27.33
2023-05-23T16:25:20.432Z,27.26
2023-05-23T16:27:47.720Z,27.51
2023-05-23T16:30:15.934Z,27.77
2023-05-23T16:32:43.221Z,27.78
2023-05-23T16:35:30.604Z,27.82
2023-05-23T16:37:57.869Z,27.85
2023-05-23T16:40:25.134Z,28.04
2023-05-23T16:42:52.512Z,28.08
2023-05-23T16:45:21.926Z,28.09
2023-05-23T16:47:53.788Z,28.08
2023-05-23T16:50:21.265Z,28.17
2023-05-23T16:52:48.794Z,28.29
2023-05-23T16:55:16.591Z,28.51
2023-05-23T16:57:44.141Z,28.65
2023-05-23T17:00:12.895Z,28.77
2023-05-23T17:02:40.664Z,28.55
2023-05-23T17:05:08.675Z,28.43
2023-05-23T17:07:35.876Z,28.35
2023-05-23T17:10:04.998Z,28.40
2023-05-23T17:12:34.680Z,28.47
2023-05-23T17:15:01.874Z,28.26
2023-05-23T17:17:29.516Z,27.16
2023-05-23T17:19:57.752Z,26.71
2023-05-23T17:22:24.961Z,26.83
2023-05-23T17:24:52.531Z,26.74
2023-05-23T17:27:21.292Z,26.64
2023-05-23T17:29:51.282Z,26.86
2023-05-23T17:32:21.351Z,27.07
2023-05-23T17:34:49.038Z,27.38
2023-05-23T17:37:16.776Z,27.80
2023-05-23T17:39:44.688Z,28.07
2023-05-23T17:42:12.979Z,28.17
2023-05-23T17:44:40.775Z,28.16
2023-05-23T17:47:08.301Z,28.05
2023-05-23T17:49:37.404Z,27.34
2023-05-23T17:52:08.128Z,26.45
2023-05-23T17:54:38.302Z,25.68
2023-05-23T17:57:06.284Z,25.16
2023-05-23T17:59:33.857Z,24.36
2023-05-23T18:02:05.033Z,23.65
2023-05-23T18:04:32.307Z,23.08
2023-05-23T18:07:02.738Z,22.58
2023-05-23T18:09:31.924Z,22.13
2023-05-23T18:12:00.196Z,21.78
2023-05-23T18:14:28.318Z,21.46
2023-05-23T18:16:56.693Z,21.13
2023-05-23T18:19:24.435Z,20.85
2023-05-23T18:22:00.920Z,20.55
2023-05-23T18:24:28.234Z,20.28
2023-05-23T18:27:02.159Z,20.06
2023-05-23T18:29:30.056Z,19.93
2023-05-23T18:31:57.450Z,19.88
2023-05-23T18:34:26.555Z,19.77
2023-05-23T18:36:55.321Z,19.65
2023-05-23T18:39:28.466Z,19.43
2023-05-23T18:41:57.306Z,19.24
2023-05-23T18:44:25.009Z,19.12
2023-05-23T18:46:53.753Z,18.99
2023-05-23T18:49:21.294Z,18.85
2023-05-23T18:51:57.564Z,18.70
2023-05-23T18:54:28.281Z,18.57
2023-05-23T18:56:59.793Z,18.43
2023-05-23T18:59:39.319Z,18.25
2023-05-23T19:02:30.709Z,18.01
2023-05-23T19:05:02.524Z,17.79
2023-05-23T19:07:35.606Z,17.63
2023-05-23T19:10:11.034Z,17.49
2023-05-23T19:12:58.141Z,17.34
2023-05-23T19:15:38.360Z,17.20
2023-05-23T19:18:11.479Z,17.10
2023-05-23T19:20:46.703Z,17.02
2023-05-23T19:23:25.053Z,16.93
2023-05-23T19:26:11.346Z,16.76
2023-05-23T19:28:46.838Z,16.59
2023-05-23T19:31:14.055Z,16.47
2023-05-23T19:33:47.521Z,16.35
2023-05-23T19:36:14.788Z,16.21
2023-05-23T19:38:42.053Z,16.12
2023-05-23T19:41:11.935Z,16.07
2023-05-23T19:43:39.488Z,16.03
2023-05-23T19:46:07.274Z,15.96
2023-05-23T19:48:34.972Z,15.90
2023-05-23T19:51:02.216Z,15.81
2023-05-23T19:53:29.552Z,15.70
2023-05-23T19:55:57.587Z,15.63
2023-05-23T19:58:24.749Z,15.52
2023-05-23T20:00:56.754Z,15.41
2023-05-23T20:03:29.741Z,15.33
2023-05-23T20:05:57.955Z,15.28
2023-05-23T20:08:26.076Z,15.18
2023-05-23T20:10:53.227Z,15.09
2023-05-23T20:13:20.940Z,15.03
2023-05-23T20:15:49.037Z,14.98
2023-05-23T20:18:17.827Z,14.91
2023-05-23T20:20:47.218Z,14.85
2023-05-23T20:23:15.215Z,14.77
2023-05-23T20:25:43.249Z,14.68
2023-05-23T20:28:13.296Z,14.59
2023-05-23T20:30:41.135Z,14.53
2023-05-23T20:33:09.285Z,14.47
2023-05-23T20:35:37.351Z,14.44
2023-05-23T20:38:04.628Z,14.40
2023-05-23T20:40:33.697Z,14.34
2023-05-23T20:43:05.959Z,14.28
2023-05-23T20:45:33.541Z,14.25
2023-05-23T20:48:03.736Z,14.22
2023-05-23T20:50:32.660Z,14.15
2023-05-23T20:53:02.366Z,14.11
2023-05-23T20:55:35.680Z,14.03
2023-05-23T20:58:03.083Z,13.99
2023-05-23T21:00:30.389Z,13.97
2023-05-23T21:02:57.709Z,13.96
2023-05-23T21:05:25.509Z,13.94
2023-05-23T21:07:53.316Z,13.92
2023-05-23T21:10:20.864Z,13.87
2023-05-23T21:12:50.896Z,13.85
2023-05-23T21:15:19.908Z,13.78
2023-05-23T21:17:47.555Z,13.76
2023-05-23T21:20:16.626Z,13.76
2023-05-23T21:22:43.801Z,13.71
2023-05-23T21:25:12.383Z,13.68
2023-05-23T21:27:39.774Z,13.61
2023-05-23T21:30:08.276Z,13.60
2023-05-23T21:32:36.129Z,13.57
2023-05-23T21:35:03.977Z,13.53
2023-05-23T21:37:31.090Z,13.50
2023-05-23T21:39:58.287Z,13.46
2023-05-23T21:42:25.766Z,13.43
2023-05-23T21:44:53.145Z,13.42
2023-05-23T21:47:21.416Z,13.37
2023-05-23T21:49:48.560Z,13.34
2023-05-23T21:52:15.850Z,13.29
2023-05-23T21:54:43.016Z,13.24
2023-05-23T21:57:10.073Z,13.24
2023-05-23T21:59:37.190Z,13.22
2023-05-23T22:02:04.626Z,13.19
2023-05-23T22:04:32.965Z,13.15
2023-05-23T22:07:00.486Z,13.13
2023-05-23T22:09:27.923Z,13.10
2023-05-23T22:11:55.300Z,13.06
2023-05-23T22:14:22.540Z,13.03
2023-05-23T22:16:50.401Z,12.99
2023-05-23T22:19:21.233Z,12.99
2023-05-23T22:21:48.540Z,12.98
2023-05-23T22:24:15.862Z,12.94
2023-05-23T22:26:43.068Z,12.91
2023-05-23T22:29:10.693Z,12.88
2023-05-23T22:31:38.183Z,12.84
2023-05-23T22:34:05.389Z,12.80
2023-05-23T22:36:33.510Z,12.76
2023-05-23T22:39:02.469Z,12.72
2023-05-23T22:41:29.525Z,12.70
2023-05-23T22:43:57.208Z,12.67
2023-05-23T22:46:24.390Z,12.62
2023-05-23T22:48:52.615Z,12.57
2023-05-23T22:51:19.869Z,12.54
2023-05-23T22:53:47.244Z,12.51
2023-05-23T22:56:15.500Z,12.46
2023-05-23T22:58:42.619Z,12.39
2023-05-23T23:01:09.829Z,12.37
2023-05-23T23:03:37.039Z,12.34
2023-05-23T23:06:09.400Z,12.30
2023-05-23T23:08:37.663Z,12.24
2023-05-23T23:11:04.978Z,12.19
2023-05-23T23:13:32.137Z,12.16
2023-05-23T23:15:59.259Z,12.10
2023-05-23T23:18:27.012Z,12.04
2023-05-23T23:20:57.048Z,11.98
2023-05-23T23:23:24.220Z,11.93
2023-05-23T23:25:52.451Z,11.84
2023-05-23T23:28:20.340Z,11.76
2023-05-23T23:30:47.554Z,11.67
2023-05-23T23:33:15.062Z,11.60
2023-05-23T23:35:45.567Z,11.53
2023-05-23T23:38:12.685Z,11.44
2023-05-23T23:40:39.844Z,11.39
2023-05-23T23:43:06.876Z,11.31
2023-05-23T23:45:33.937Z,11.27
2023-05-23T23:48:01.033Z,11.21
2023-05-23T23:50:28.482Z,11.14
2023-05-23T23:52:57.925Z,11.09
2023-05-23T23:55:25.025Z,11.03
2023-05-23T23:57:52.972Z,10.97
